createdAt,value
2022-09-06T00:00:55.296Z,1.00
2022-09-06T00:03:28.492Z,6.70
2022-09-06T00:06:10.850Z,12.00
2022-09-06T00:08:51.717Z,9.60
2022-09-06T00:11:29.305Z,7.60
2022-09-06T00:14:00.432Z,11.60
2022-09-06T00:16:32.492Z,15.10
2022-09-06T00:18:59.779Z,22.00
2022-09-06T00:21:31.093Z,19.70
2022-09-06T00:24:12.553Z,14.40
2022-09-06T00:26:44.384Z,16.00
2022-09-06T00:29:15.041Z,17.60
2022-09-06T00:31:55.311Z,19.90
2022-09-06T00:34:27.428Z,4.40
2022-09-06T00:36:57.087Z,11.30
2022-09-06T00:39:28.349Z,13.70
2022-09-06T00:42:05.775Z,17.60
2022-09-06T00:44:46.546Z,22.40
2022-09-06T00:47:21.324Z,26.40
2022-09-06T00:50:04.490Z,15.70
2022-09-06T00:52:41.686Z,25.20
2022-09-06T00:55:19.013Z,15.80
2022-09-06T00:57:51.756Z,14.90
2022-09-06T01:00:23.141Z,12.40
2022-09-06T01:02:53.761Z,22.00
2022-09-06T01:05:27.132Z,32.30
2022-09-06T01:08:11.574Z,17.40
2022-09-06T01:11:00.052Z,20.80
2022-09-06T01:14:11.254Z,23.90
2022-09-06T01:17:00.105Z,34.20
2022-09-06T01:19:50.609Z,39.60
2022-09-06T01:22:46.098Z,46.80
2022-09-06T01:26:00.250Z,46.60
2022-09-06T01:28:53.975Z,49.20
2022-09-06T01:31:30.157Z,71.60
2022-09-06T01:34:17.684Z,99.90
2022-09-06T01:37:11.137Z,99.90
2022-09-06T01:39:43.329Z,99.90
2022-09-06T01:42:28.525Z,99.90
2022-09-06T01:45:11.500Z,99.90
2022-09-06T01:48:11.776Z,99.90
2022-09-06T01:51:19.592Z,99.90
2022-09-06T01:54:11.928Z,99.90
2022-09-06T01:57:18.043Z,99.90
2022-09-06T02:00:09.283Z,99.90
2022-09-06T02:03:06.714Z,99.90
2022-09-06T02:05:47.693Z,99.90
2022-09-06T02:08:27.074Z,99.90
2022-09-06T02:11:15.986Z,99.90
2022-09-06T02:13:54.400Z,99.90
2022-09-06T02:16:33.699Z,99.90
2022-09-06T02:19:11.123Z,99.90
2022-09-06T02:21:43.595Z,99.90
2022-09-06T02:24:20.423Z,99.90
2022-09-06T02:26:56.318Z,99.90
2022-09-06T02:29:31.209Z,99.90
2022-09-06T02:32:15.267Z,99.90
2022-09-06T02:34:48.502Z,99.90
2022-09-06T02:37:33.582Z,99.90
2022-09-06T02:40:01.200Z,99.90
2022-09-06T02:42:37.716Z,99.90
2022-09-06T02:45:11.307Z,99.90
2022-09-06T02:47:47.864Z,99.90
2022-09-06T02:50:26.961Z,99.90
2022-09-06T02:53:16.586Z,99.90
2022-09-06T02:56:17.120Z,99.90
2022-09-06T02:58:47.750Z,99.90
2022-09-06T03:01:17.690Z,99.90
2022-09-06T03:04:00.803Z,99.90
2022-09-06T03:06:31.218Z,99.90
2022-09-06T03:09:05.959Z,99.90
2022-09-06T03:11:38.897Z,99.90
2022-09-06T03:14:08.503Z,99.90
2022-09-06T03:16:49.902Z,99.90
2022-09-06T03:19:20.418Z,99.90
2022-09-06T03:21:53.764Z,99.90
2022-09-06T03:24:24.743Z,99.90
2022-09-06T03:27:04.489Z,99.90
2022-09-06T03:29:40.155Z,99.90
2022-09-06T03:32:10.426Z,99.90
2022-09-06T03:34:53.588Z,99.90
2022-09-06T03:37:23.313Z,99.90
2022-09-06T03:39:57.124Z,99.90
2022-09-06T03:42:34.599Z,99.90
2022-09-06T03:45:10.828Z,99.90
2022-09-06T03:47:43.747Z,99.90
2022-09-06T03:50:11.170Z,99.90
2022-09-06T03:52:44.709Z,99.90
2022-09-06T03:55:14.011Z,99.90
2022-09-06T03:57:44.246Z,99.90
2022-09-06T04:00:17.489Z,99.90
2022-09-06T04:02:52.474Z,99.90
2022-09-06T04:05:30.262Z,99.90
2022-09-06T04:08:08.096Z,99.90
2022-09-06T04:10:39.016Z,99.90
2022-09-06T04:13:17.277Z,99.90
2022-09-06T04:16:00.505Z,99.90
2022-09-06T04:18:32.958Z,99.90
2022-09-06T04:21:10.115Z,99.90
2022-09-06T04:24:11.214Z,99.90
2022-09-06T04:26:41.558Z,99.90
2022-09-06T04:29:20.584Z,99.90
2022-09-06T04:31:56.575Z,99.90
2022-09-06T04:34:34.556Z,99.90
2022-09-06T04:37:03.194Z,99.90
2022-09-06T04:39:35.280Z,99.90
2022-09-06T04:42:20.057Z,99.90
2022-09-06T04:44:56.129Z,99.90
2022-09-06T04:47:31.475Z,99.90
2022-09-06T04:52:45.232Z,99.90
2022-09-06T04:55:24.158Z,99.90
2022-09-06T04:58:00.525Z,99.90
2022-09-06T05:00:35.026Z,99.90
2022-09-06T05:03:04.070Z,99.90
2022-09-06T05:05:33.884Z,99.90
2022-09-06T05:08:09.212Z,99.90
2022-09-06T05:10:46.042Z,99.90
2022-09-06T05:13:20.447Z,99.90
2022-09-06T05:15:58.515Z,99.90
2022-09-06T05:18:29.688Z,99.90
2022-09-06T05:21:07.594Z,99.90
2022-09-06T05:23:37.622Z,99.90
2022-09-06T05:26:08.161Z,99.90
2022-09-06T05:28:46.974Z,99.90
2022-09-06T05:31:35.758Z,99.90
2022-09-06T05:34:08.359Z,99.90
2022-09-06T05:36:54.269Z,99.90
2022-09-06T05:39:29.655Z,99.90
2022-09-06T05:41:56.876Z,99.90
2022-09-06T05:44:31.605Z,99.90
2022-09-06T05:47:09.738Z,99.90
2022-09-06T05:49:42.956Z,99.90
2022-09-06T05:52:15.654Z,99.90
2022-09-06T05:54:51.377Z,99.90
2022-09-06T05:57:24.634Z,99.90
2022-09-06T06:00:05.316Z,99.90
2022-09-06T06:02:46.127Z,99.90
2022-09-06T06:05:21.036Z,99.90
2022-09-06T06:07:55.647Z,99.90
2022-09-06T06:10:28.412Z,99.90
2022-09-06T06:13:03.662Z,99.90
2022-09-06T06:15:40.846Z,99.90
2022-09-06T06:18:17.160Z,99.90
2022-09-06T06:20:50.864Z,99.90
2022-09-06T06:23:20.440Z,99.90
2022-09-06T06:26:05.296Z,99.90
2022-09-06T06:28:37.196Z,99.90
2022-09-06T06:31:08.392Z,99.90
2022-09-06T06:33:39.702Z,99.90
2022-09-06T06:36:24.807Z,99.90
2022-09-06T06:39:05.011Z,99.90
2022-09-06T06:41:52.344Z,99.90
2022-09-06T06:44:27.123Z,99.90
2022-09-06T06:47:06.013Z,99.90
2022-09-06T06:49:37.348Z,99.90
2022-09-06T06:52:14.877Z,99.90
2022-09-06T06:55:00.381Z,99.90
2022-09-06T06:57:30.186Z,99.90
2022-09-06T07:00:14.861Z,99.90
2022-09-06T07:02:46.824Z,99.90
2022-09-06T07:08:09.078Z,99.90
2022-09-06T07:10:48.877Z,99.90
2022-09-06T07:13:25.929Z,99.90
2022-09-06T07:16:14.210Z,99.90
2022-09-06T07:18:51.556Z,99.90
2022-09-06T07:21:41.935Z,99.90
2022-09-06T07:24:17.332Z,99.90
2022-09-06T07:29:59.652Z,99.90
2022-09-06T07:32:27.842Z,99.90
2022-09-06T07:35:11.665Z,99.90
2022-09-06T07:37:38.778Z,99.90
2022-09-06T07:40:06.398Z,99.90
2022-09-06T07:42:36.830Z,99.90
2022-09-06T07:45:11.336Z,99.90
2022-09-06T07:47:57.280Z,99.90
2022-09-06T07:53:23.316Z,99.90
2022-09-06T07:55:57.294Z,99.90
2022-09-06T07:58:35.440Z,99.90
2022-09-06T08:01:39.398Z,99.90
2022-09-06T08:04:15.626Z,99.90
2022-09-06T08:09:56.870Z,99.90
2022-09-06T08:12:32.918Z,99.90
2022-09-06T08:15:03.325Z,99.90
2022-09-06T08:17:38.221Z,99.90
2022-09-06T08:20:18.594Z,99.90
2022-09-06T08:22:57.172Z,99.90
2022-09-06T08:25:31.891Z,99.90
2022-09-06T08:28:06.862Z,99.90
2022-09-06T08:30:40.821Z,99.90
2022-09-06T08:33:16.335Z,99.90
2022-09-06T08:35:56.901Z,99.90
2022-09-06T08:38:33.909Z,99.90
2022-09-06T08:41:13.243Z,99.90
2022-09-06T08:46:58.478Z,99.90
2022-09-06T08:49:36.234Z,99.90
2022-09-06T08:52:49.681Z,99.90
2022-09-06T08:55:57.559Z,99.90
2022-09-06T08:58:44.999Z,99.90
2022-09-06T09:01:29.404Z,99.90
2022-09-06T09:04:05.306Z,99.90
2022-09-06T09:06:38.293Z,95.80
2022-09-06T09:09:06.910Z,88.30
2022-09-06T09:11:50.389Z,80.30
2022-09-06T09:14:47.757Z,77.10
2022-09-06T09:17:41.377Z,70.50
2022-09-06T09:20:17.333Z,64.20
2022-09-06T09:22:47.718Z,61.30
2022-09-06T09:25:37.600Z,60.00
2022-09-06T09:28:38.338Z,59.50
2022-09-06T09:31:23.414Z,65.30
2022-09-06T09:33:56.963Z,61.70
2022-09-06T09:36:26.922Z,60.40
2022-09-06T09:38:58.381Z,61.40
2022-09-06T09:41:40.172Z,59.50
2022-09-06T09:44:21.099Z,57.80
2022-09-06T09:46:51.231Z,59.60
2022-09-06T09:49:36.812Z,56.10
2022-09-06T09:52:45.619Z,55.00
2022-09-06T09:55:30.493Z,53.70
2022-09-06T09:58:04.905Z,53.30
2022-09-06T10:00:50.981Z,52.10
2022-09-06T10:03:34.290Z,53.90
2022-09-06T10:09:46.512Z,56.30
2022-09-06T10:12:36.667Z,59.20
2022-09-06T10:15:16.722Z,62.40
2022-09-06T10:18:01.259Z,66.20
2022-09-06T10:20:59.636Z,68.70
2022-09-06T10:27:23.545Z,71.10
2022-09-06T10:30:08.442Z,72.60
2022-09-06T10:33:01.417Z,72.00
2022-09-06T10:35:38.726Z,72.10
2022-09-06T10:38:39.921Z,72.00
2022-09-06T10:41:44.224Z,71.00
2022-09-06T10:44:52.286Z,66.80
2022-09-06T10:47:52.681Z,63.60
2022-09-06T10:50:55.519Z,60.80
2022-09-06T10:53:28.625Z,58.70
2022-09-06T10:57:03.328Z,57.80
2022-09-06T10:59:57.664Z,57.60
2022-09-06T11:06:19.466Z,55.80
2022-09-06T11:09:27.548Z,56.00
2022-09-06T11:12:25.009Z,56.50
2022-09-06T11:15:01.102Z,54.80
2022-09-06T11:18:20.681Z,54.20
2022-09-06T11:21:36.953Z,54.70
2022-09-06T11:24:38.589Z,55.10
2022-09-06T11:27:42.476Z,56.80
2022-09-06T11:30:27.369Z,55.40
2022-09-06T11:33:39.618Z,53.70
2022-09-06T11:36:52.492Z,53.70
2022-09-06T11:43:18.680Z,53.80
2022-09-06T11:46:09.922Z,54.20
2022-09-06T11:49:18.172Z,53.70
2022-09-06T11:51:52.606Z,54.70
2022-09-06T11:54:34.434Z,52.90
2022-09-06T11:57:33.502Z,52.00
2022-09-06T12:00:12.837Z,52.40
2022-09-06T12:02:54.362Z,52.60
2022-09-06T12:06:12.035Z,52.20
2022-09-06T12:08:42.796Z,51.60
2022-09-06T12:11:30.217Z,53.60
2022-09-06T12:14:20.567Z,51.70
2022-09-06T12:17:37.766Z,52.10
2022-09-06T12:21:03.047Z,51.50
2022-09-06T12:23:41.437Z,54.30
2022-09-06T12:26:17.987Z,54.10
2022-09-06T12:28:57.455Z,53.00
2022-09-06T12:31:41.074Z,51.80
2022-09-06T12:34:38.333Z,50.70
2022-09-06T12:37:14.238Z,52.50
2022-09-06T12:40:11.583Z,54.20
2022-09-06T12:42:54.353Z,54.50
2022-09-06T12:45:33.105Z,56.40
2022-09-06T12:48:14.548Z,57.40
2022-09-06T12:51:00.355Z,57.10
2022-09-06T12:53:36.991Z,55.30
2022-09-06T12:56:28.757Z,55.00
2022-09-06T12:59:26.466Z,55.30
2022-09-06T13:02:07.675Z,55.20
2022-09-06T13:04:48.722Z,55.10
2022-09-06T13:07:30.874Z,54.10
2022-09-06T13:10:10.309Z,54.70
2022-09-06T13:12:56.236Z,54.40
2022-09-06T13:15:32.502Z,53.50
2022-09-06T13:18:47.022Z,55.40
2022-09-06T13:21:47.409Z,55.80
2022-09-06T13:24:34.370Z,54.90
2022-09-06T13:27:25.026Z,55.60
2022-09-06T13:30:11.462Z,55.70
2022-09-06T13:32:52.403Z,54.30
2022-09-06T13:35:44.385Z,54.90
2022-09-06T13:38:51.250Z,55.50
2022-09-06T13:41:42.675Z,56.50
2022-09-06T13:44:26.069Z,55.70
2022-09-06T13:47:05.587Z,58.40
2022-09-06T13:49:52.150Z,57.20
2022-09-06T13:52:27.150Z,57.60
2022-09-06T13:55:08.303Z,60.30
2022-09-06T13:57:43.107Z,58.00
2022-09-06T14:00:16.454Z,60.10
2022-09-06T14:02:56.900Z,58.00
2022-09-06T14:05:42.448Z,59.00
2022-09-06T14:08:21.570Z,59.60
2022-09-06T14:10:56.638Z,63.30
2022-09-06T14:16:27.717Z,61.80
2022-09-06T14:19:06.009Z,60.80
2022-09-06T14:21:46.778Z,61.90
2022-09-06T14:24:20.476Z,59.90
2022-09-06T14:26:53.595Z,61.10
2022-09-06T14:29:27.169Z,61.30
2022-09-06T14:32:14.328Z,60.90
2022-09-06T14:34:44.808Z,62.70
2022-09-06T14:37:20.762Z,60.70
2022-09-06T14:40:00.739Z,60.00
2022-09-06T14:42:39.180Z,60.50
2022-09-06T14:45:16.957Z,60.20
2022-09-06T14:47:52.472Z,60.70
2022-09-06T14:50:24.942Z,57.70
2022-09-06T14:53:15.053Z,57.80
2022-09-06T14:56:03.698Z,57.10
2022-09-06T14:58:42.114Z,58.00
2022-09-06T15:01:28.388Z,58.20
2022-09-06T15:04:14.712Z,59.20
2022-09-06T15:06:51.221Z,57.40
2022-09-06T15:09:23.742Z,57.30
2022-09-06T15:12:07.583Z,57.80
2022-09-06T15:14:37.803Z,57.30
2022-09-06T15:17:12.172Z,58.20
2022-09-06T15:19:45.073Z,55.60
2022-09-06T15:22:30.085Z,54.50
2022-09-06T15:25:00.672Z,55.00
2022-09-06T15:27:36.955Z,56.70
2022-09-06T15:30:09.751Z,55.60
2022-09-06T15:32:39.510Z,56.70
2022-09-06T15:35:11.501Z,56.20
2022-09-06T15:37:42.642Z,56.70
2022-09-06T15:40:27.019Z,56.40
2022-09-06T15:43:00.341Z,55.80
2022-09-06T15:45:48.810Z,57.30
2022-09-06T15:48:23.028Z,58.90
2022-09-06T15:50:53.248Z,57.10
2022-09-06T15:53:29.311Z,57.10
2022-09-06T15:56:15.128Z,55.50
2022-09-06T15:58:47.417Z,56.60
2022-09-06T16:01:44.842Z,57.30
2022-09-06T16:04:18.030Z,57.70
2022-09-06T16:06:53.342Z,59.10
2022-09-06T16:09:23.271Z,58.20
2022-09-06T16:11:53.635Z,59.20
2022-09-06T16:14:24.618Z,59.40
2022-09-06T16:17:03.575Z,58.30
2022-09-06T16:19:48.634Z,59.40
2022-09-06T16:22:27.807Z,59.60
2022-09-06T16:24:59.616Z,60.40
2022-09-06T16:27:29.480Z,60.70
2022-09-06T16:30:05.386Z,61.00
2022-09-06T16:32:54.155Z,61.20
2022-09-06T16:35:21.909Z,61.10
2022-09-06T16:37:52.413Z,60.90
2022-09-06T16:40:23.430Z,59.00
2022-09-06T16:42:58.251Z,59.60
2022-09-06T16:45:33.400Z,60.30
2022-09-06T16:48:07.763Z,60.40
2022-09-06T16:50:41.958Z,60.70
2022-09-06T16:53:21.476Z,61.60
2022-09-06T16:56:07.112Z,62.10
2022-09-06T16:58:45.998Z,62.50
2022-09-06T17:01:19.328Z,63.80
2022-09-06T17:03:52.193Z,65.10
2022-09-06T17:06:27.047Z,66.40
2022-09-06T17:09:10.299Z,67.60
2022-09-06T17:11:49.151Z,68.80
2022-09-06T17:14:49.225Z,69.30
2022-09-06T17:17:27.127Z,70.20
2022-09-06T17:19:59.187Z,71.10
2022-09-06T17:22:41.951Z,71.90
2022-09-06T17:25:17.244Z,72.60
2022-09-06T17:27:59.173Z,73.60
2022-09-06T17:30:36.194Z,74.50
2022-09-06T17:33:07.686Z,75.20
2022-09-06T17:35:43.271Z,76.20
2022-09-06T17:38:36.966Z,76.60
2022-09-06T17:41:19.988Z,76.80
2022-09-06T17:44:01.352Z,78.30
2022-09-06T17:46:51.828Z,80.60
2022-09-06T17:49:42.993Z,81.70
2022-09-06T17:52:15.300Z,83.30
2022-09-06T17:54:55.406Z,84.50
2022-09-06T17:57:29.406Z,86.40
2022-09-06T18:00:12.486Z,87.30
2022-09-06T18:02:41.940Z,89.90
2022-09-06T18:05:10.634Z,90.30
2022-09-06T18:07:48.625Z,90.80
2022-09-06T18:10:33.596Z,91.90
2022-09-06T18:13:10.828Z,92.90
2022-09-06T18:15:52.688Z,93.70
2022-09-06T18:18:35.418Z,95.10
2022-09-06T18:21:18.384Z,97.20
2022-09-06T18:23:48.081Z,99.60
2022-09-06T18:26:33.318Z,99.90
2022-09-06T18:29:09.595Z,99.90
2022-09-06T18:31:46.758Z,99.90
2022-09-06T18:34:21.730Z,99.90
2022-09-06T18:36:54.410Z,99.90
2022-09-06T18:39:36.586Z,99.90
2022-09-06T18:42:17.433Z,99.90
2022-09-06T18:44:52.656Z,99.90
2022-09-06T18:47:26.564Z,99.90
2022-09-06T18:49:59.758Z,99.90
2022-09-06T18:52:32.491Z,99.90
2022-09-06T18:55:04.649Z,99.90
2022-09-06T18:57:38.292Z,99.90
2022-09-06T19:00:08.363Z,99.90
2022-09-06T19:02:46.574Z,99.90
2022-09-06T19:05:21.613Z,99.90
2022-09-06T19:07:57.679Z,99.90
2022-09-06T19:10:29.476Z,99.90
2022-09-06T19:13:08.007Z,99.90
2022-09-06T19:15:50.621Z,99.90
2022-09-06T19:18:26.339Z,99.90
2022-09-06T19:21:10.155Z,99.90
2022-09-06T19:23:50.548Z,99.90
2022-09-06T19:26:30.353Z,99.90
2022-09-06T19:29:08.059Z,99.90
2022-09-06T19:31:44.873Z,99.90
2022-09-06T19:34:18.951Z,99.90
2022-09-06T19:36:57.145Z,99.90
2022-09-06T19:39:36.971Z,99.90
2022-09-06T19:42:08.095Z,99.90
2022-09-06T19:44:45.167Z,99.90
2022-09-06T19:47:22.063Z,99.90
2022-09-06T19:50:00.869Z,99.90
2022-09-06T19:52:46.652Z,99.90
2022-09-06T19:55:18.619Z,99.90
2022-09-06T19:57:54.265Z,99.90
2022-09-06T20:00:24.894Z,99.90
2022-09-06T20:02:57.726Z,99.90
2022-09-06T20:05:31.628Z,99.90
2022-09-06T20:08:06.932Z,99.90
2022-09-06T20:10:36.794Z,99.90
2022-09-06T20:13:22.019Z,99.90
2022-09-06T20:15:52.274Z,99.90
2022-09-06T20:18:34.317Z,99.90
2022-09-06T20:24:23.571Z,99.90
2022-09-06T20:27:10.811Z,99.90
2022-09-06T20:29:51.727Z,99.90
2022-09-06T20:32:24.231Z,99.90
2022-09-06T20:34:59.577Z,99.90
2022-09-06T20:37:32.868Z,99.90
2022-09-06T20:40:11.363Z,99.90
2022-09-06T20:42:44.118Z,99.90
2022-09-06T20:45:22.597Z,99.90
2022-09-06T20:48:00.276Z,99.90
2022-09-06T20:50:44.018Z,99.90
2022-09-06T20:53:16.495Z,99.90
2022-09-06T20:55:56.900Z,99.90
2022-09-06T20:58:27.735Z,99.90
2022-09-06T21:01:01.654Z,99.90
2022-09-06T21:03:29.082Z,99.90
2022-09-06T21:06:04.064Z,99.90
2022-09-06T21:08:42.388Z,99.90
2022-09-06T21:11:10.890Z,99.90
2022-09-06T21:13:44.091Z,99.90
2022-09-06T21:16:11.628Z,99.90
2022-09-06T21:18:46.321Z,99.90
2022-09-06T21:21:26.905Z,99.90
2022-09-06T21:23:57.134Z,99.90
2022-09-06T21:26:24.291Z,99.90
2022-09-06T21:28:53.818Z,99.90
2022-09-06T21:31:26.335Z,99.90
2022-09-06T21:33:57.919Z,99.90
2022-09-06T21:36:25.152Z,99.90
2022-09-06T21:39:03.790Z,99.90
2022-09-06T21:41:43.022Z,99.90
2022-09-06T21:44:17.695Z,99.90
2022-09-06T21:46:45.012Z,99.90
2022-09-06T21:49:26.950Z,99.90
2022-09-06T21:51:59.374Z,99.90
2022-09-06T21:54:29.133Z,99.90
2022-09-06T21:56:58.843Z,99.90
2022-09-06T21:59:41.343Z,99.90
2022-09-06T22:02:17.639Z,99.90
2022-09-06T22:04:54.080Z,99.90
2022-09-06T22:07:28.243Z,99.90
2022-09-06T22:09:56.585Z,99.90
2022-09-06T22:12:33.450Z,99.90
2022-09-06T22:15:03.259Z,99.90
2022-09-06T22:17:36.007Z,99.90
2022-09-06T22:20:08.666Z,99.90
2022-09-06T22:22:38.223Z,99.90
2022-09-06T22:25:06.111Z,99.90
2022-09-06T22:27:41.495Z,99.90
2022-09-06T22:30:20.728Z,99.90
2022-09-06T22:32:55.674Z,99.90
2022-09-06T22:35:30.699Z,99.90
2022-09-06T22:38:02.262Z,99.90
2022-09-06T22:40:30.487Z,99.90
2022-09-06T22:43:00.403Z,99.90
2022-09-06T22:45:30.335Z,99.90
2022-09-06T22:48:03.614Z,99.90
2022-09-06T22:50:31.633Z,99.90
2022-09-06T22:53:09.910Z,99.90
2022-09-06T22:55:41.081Z,99.90
2022-09-06T22:58:08.231Z,99.90
2022-09-06T23:00:51.593Z,99.90
2022-09-06T23:03:21.208Z,99.90
2022-09-06T23:06:00.867Z,99.90
2022-09-06T23:08:28.106Z,99.90
2022-09-06T23:11:04.382Z,99.90
2022-09-06T23:13:35.018Z,99.90
2022-09-06T23:16:23.679Z,99.90
2022-09-06T23:18:57.178Z,99.90
2022-09-06T23:21:33.952Z,99.90
2022-09-06T23:24:09.196Z,99.90
2022-09-06T23:26:41.514Z,99.90
2022-09-06T23:29:14.037Z,99.90
2022-09-06T23:31:44.175Z,99.90
2022-09-06T23:34:16.840Z,99.90
2022-09-06T23:36:52.488Z,99.90
2022-09-06T23:39:22.457Z,99.90
2022-09-06T23:41:55.085Z,99.90
2022-09-06T23:44:27.100Z,99.90
2022-09-06T23:46:57.403Z,99.90
2022-09-06T23:49:36.710Z,99.90
2022-09-06T23:52:10.913Z,99.90
2022-09-06T23:54:45.537Z,99.90
2022-09-06T23:57:18.026Z,99.90
2022-09-06T23:59:48.250Z,99.90
